Boone, CO

2:43 AM MDT on October 24, 2014 (GMT -0600)
Ellicott | Change Station
CLOSE
Current Station
Airport
Location: Ellicott,
Elevation: 6037 ft
Nearby Weather Stations

Elev 6037 ft 38.76 °N, 104.31 °W | Updated 1 day ago

Clear
Clear
46 °F
Feels Like 46 °F
N
5
Wind Variable Wind from NW
Gusts 7 mph

Today
High -- | Low -- °F
--% Chance of Precip.
Yesterday
High -- | Low -- °F
Precip. -- in
7:14 AM 6:06 PM
New Moon, 0% visible
Pressure 30.07 in
Visibility 10.0 miles
Clouds Clear
Dew Point 36 °F
Humidity 62%
Rainfall 0.00 in
Snow Depth Not available.
UV 0 out of 12
Pollen 1.80 out of 12
Air Quality Not available.
Flu Activity Sporadic
METAR KABH 230256Z AUTO 10010KT 10SM CLR 11/06 A3018 RMK AO2 SLP181 T01060056 51016 $

More Conditions Fewer Conditions

Pressure 30.07 in
Visibility 10.0 miles
Clouds Clear
Dew Point 36 °F
Humidity 62%
Rainfall 0.00 in
Snow Depth Not available.
UV 0 out of 12
Pollen 1.80 out of 12
Air Quality Not available.
Flu Activity Sporadic
METAR KABH 230256Z AUTO 10010KT 10SM CLR 11/06 A3018 RMK AO2 SLP181 T01060056 51016 $

More Conditions Fewer Conditions

10-Day Weather Forecast

Almanac

Astronomy

Oct. 24, 2014 Rise Set
Actual Time 7:14 AM MDT 6:06 PM MDT
Civil Twilight 6:47 AM MDT 6:33 PM MDT
Nautical Twilight 6:16 AM MDT 7:04 PM MDT
Astronomical Twilight 5:46 AM MDT 7:35 PM MDT
Moon 7:55 AM MDT 6:49 PM MDT
Length of Visible Light 11h 45m
Length of Day
10h 52m
Tomorrow will be 2m 17s shorter.
New Moon, 0% of the Moon is Illuminated
Today
New Moon
Oct 30
First Quarter
Nov 6
Full
Nov 14
Last Quarter
Nov 22
New

Today's Extremes

State Highs State Lows

Community

WunderPhotos

Upload Photos

1,764,511 photos uploaded!

WunderBlogs® & News

Nearby

Snow Depth

Station Depth Elevation
Glen Cove 1 in 11460 ft
Medano Pass 0 in 9620 ft
South Colony 0 in 10800 ft
Ute Creek 0 in 10650 ft
Apishapa 0 in 10000 ft

Earthquake Activity

City Distance Mag. Time & Date
Trinidad, Colorado 92 miles 2.7 10:33 PM MDT
2014-10-20
Minimum magnitude displayed is 2.5.

Coastal Water Temperatures

Place Temperature
No Stations Reporting

Nearby Weather Stations